OMAD/AZI METAR and TAF weather

Enter ICAO airport designator
Station Type Date Time Source
OMAD METAR 2019/12/10 19:00 UTC NOAA

OMAD 101900Z 08009KT CAVOK 24/20 Q1014 BECMG 15009KT


Station Type Date Time Source
OMAD Decoded METAR 2019/12/10 19:00 UTC NOAA

Abu Dhabi Bateen Airport, United Arab Emirates (OMAD) 24-26N 054-28E 3M
Dec 10, 2019 - 02:00 PM EST / 2019.12.10 1900 UTC
Wind: from the E (080 degrees) at 10 MPH (9 KT):0
Visibility: greater than 7 mile(s):0
Temperature: 75 F (24 C)
Dew Point: 68 F (20 C)
Relative Humidity: 78%
Pressure (altimeter): 29.94 in. Hg (1014 hPa)
ob: OMAD 101900Z 08009KT CAVOK 24/20 Q1014 BECMG 15009KT
cycle: 19

Station Type Date Time Source
OMAD TAF 2019/12/10 18:00 UTC NOAA

TAF OMAD 101700Z 1018/1200 07009KT 8000 FEW040
BECMG 1018/1020 15009KT PROB30
TEMPO 1100/1114 VRB20G30KT 3000 SHRA SCT040TCU PROB30
TEMPO 1101/1109 VRB30G40KT 1500 TSRA BLDU FEW035CB
BECMG 1105/1107 34010KT

Example: see airport list